Time;durP1;ratioP1;P1;durP2;ratioP2;P2;SDS_P1;SDS_P2;PMS_P1;PMS_P2;Temp;Humidity;BMP_temperature;BMP_pressure;BME280_temperature;BME280_humidity;BME280_pressure;Samples;Min_cycle;Max_cycle;Signal;HPM_P1;HPM_P2
2021/12/22 00:02:15;;;;;;;13.98;7.88;;;1.50;81.80;;;0.06;77.64;96915.50;4078573;34;20112;-88
2021/12/22 00:04:46;;;;;;;12.50;7.07;;;1.50;81.70;;;0.07;77.38;96933.31;4077862;34;20016;-87
2021/12/22 00:07:13;;;;;;;14.65;7.60;;;1.50;81.60;;;0.07;77.91;96939.53;4101112;34;20125;-87
2021/12/22 00:09:40;;;;;;;16.65;7.90;;;1.50;81.80;;;0.08;77.67;96941.22;4100262;34;20156;-87
2021/12/22 00:12:07;;;;;;;14.05;8.52;;;1.50;81.80;;;0.07;77.54;96944.06;4078742;34;20161;-87
2021/12/22 00:14:34;;;;;;;12.55;7.57;;;1.50;81.60;;;0.06;77.80;96942.44;4077719;34;20219;-87
2021/12/22 00:17:00;;;;;;;14.55;8.52;;;1.50;81.70;;;0.07;77.28;96944.06;4122075;34;20020;-85
2021/12/22 00:19:26;;;;;;;15.13;9.10;;;1.50;81.60;;;0.07;77.37;96946.75;4100022;34;20327;-87
2021/12/22 00:21:53;;;;;;;16.63;10.35;;;1.50;81.30;;;0.06;77.31;96947.81;4078189;34;20011;-87
2021/12/22 00:24:19;;;;;;;15.40;9.18;;;1.40;81.40;;;0.05;77.63;96954.22;4099324;34;20026;-87
2021/12/22 00:26:45;;;;;;;15.43;8.73;;;1.50;81.60;;;0.05;77.30;96956.91;4100218;34;20438;-87
2021/12/22 00:29:13;;;;;;;15.00;8.93;;;1.50;81.50;;;0.04;77.65;96955.22;4097129;34;20098;-87
2021/12/22 00:31:56;;;;;;;16.50;9.43;;;1.40;81.50;;;0.05;77.25;96956.91;4099183;34;20059;-87
2021/12/22 00:34:26;;;;;;;14.95;8.90;;;1.50;81.50;;;0.03;77.57;96965.16;4105549;34;19997;-87
2021/12/22 00:36:52;;;;;;;16.70;9.43;;;1.50;81.70;;;0.02;77.76;96963.47;4079237;34;20153;-88
2021/12/22 00:39:18;;;;;;;17.48;9.70;;;1.40;81.60;;;0.03;77.78;96972.41;4121960;34;20467;-87
2021/12/22 00:41:45;;;;;;;16.60;9.15;;;1.40;81.70;;;0.04;77.66;96964.13;4090165;34;19993;-87
2021/12/22 00:44:12;;;;;;;14.60;8.57;;;1.40;81.70;;;0.05;77.70;96975.75;4099201;34;20260;-87
2021/12/22 00:46:39;;;;;;;16.20;9.73;;;1.40;81.70;;;0.02;77.34;96960.78;4090077;34;20031;-87
2021/12/22 00:49:05;;;;;;;13.68;8.55;;;1.40;81.30;;;0.04;77.70;96968.69;4104276;34;20024;-87
2021/12/22 00:51:31;;;;;;;18.15;10.27;;;1.50;81.70;;;0.04;77.64;96960.63;4126546;34;20237;-85
2021/12/22 00:53:57;;;;;;;17.67;10.27;;;1.40;81.80;;;0.02;77.35;96965.34;4126515;34;20169;-86
2021/12/22 00:56:24;;;;;;;17.98;9.80;;;1.40;81.70;;;0.03;77.46;96969.72;4125973;34;19996;-87
2021/12/22 00:58:50;;;;;;;17.80;10.88;;;1.40;81.60;;;0.02;78.27;96962.66;4104354;34;20126;-85
2021/12/22 01:01:16;;;;;;;14.23;9.00;;;1.40;81.90;;;0.00;77.58;96968.22;4104205;34;20207;-86
2021/12/22 01:03:43;;;;;;;16.33;9.02;;;1.40;82.70;;;0.01;77.61;96977.94;4126187;34;20453;-86
2021/12/22 01:06:09;;;;;;;14.10;9.05;;;1.40;81.70;;;0.01;77.37;96966.38;4103836;34;20000;-87
2021/12/22 01:08:35;;;;;;;14.68;9.40;;;1.40;81.50;;;-0.01;77.61;96962.00;4149091;34;19984;-86
2021/12/22 01:11:02;;;;;;;15.65;9.63;;;1.40;81.60;;;0.00;77.75;96962.84;4126548;34;20184;-86
2021/12/22 01:13:29;;;;;;;14.55;9.40;;;1.40;81.70;;;0.01;77.98;96969.06;4126212;34;20000;-86
2021/12/22 01:15:55;;;;;;;16.90;9.88;;;1.40;82.00;;;0.01;77.79;96966.38;4126130;34;20303;-86
2021/12/22 01:18:33;;;;;;;16.20;9.10;;;1.40;81.60;;;0.01;77.66;96967.19;4126551;34;20135;-86
2021/12/22 01:21:10;;;;;;;14.32;8.55;;;1.40;81.80;;;-0.01;77.73;96962.00;4128321;34;19980;-86
2021/12/22 01:23:48;;;;;;;15.57;10.15;;;1.40;81.70;;;-0.03;77.79;96958.66;4066284;34;20021;-86
2021/12/22 01:26:15;;;;;;;16.65;9.27;;;1.40;81.60;;;-0.02;77.82;96954.94;4088518;34;20198;-87
2021/12/22 01:28:43;;;;;;;19.48;10.60;;;1.40;81.90;;;-0.01;78.12;96953.91;4126404;34;20210;-86
2021/12/22 01:31:15;;;;;;;18.08;10.00;;;1.40;81.80;;;-0.02;77.76;96957.63;4126378;34;20000;-86
2021/12/22 01:33:41;;;;;;;22.13;11.18;;;1.40;81.80;;;-0.01;77.70;96956.63;4105653;34;20012;-87
2021/12/22 01:36:07;;;;;;;17.27;9.65;;;1.40;81.80;;;-0.01;77.75;96950.41;4081221;34;20159;-86
2021/12/22 01:38:34;;;;;;;15.80;9.70;;;1.40;81.80;;;-0.03;77.67;96955.13;4092669;34;19989;-87
2021/12/22 01:41:00;;;;;;;18.42;10.30;;;1.40;81.70;;;-0.04;77.96;96946.22;4049941;34;20184;-87
2021/12/22 01:43:26;;;;;;;16.00;9.48;;;1.40;81.80;;;-0.01;77.79;96950.41;4067432;34;20300;-87
2021/12/22 01:46:20;;;;;;;16.50;9.77;;;1.40;81.80;;;-0.04;77.33;96935.44;4096703;34;20098;-87
2021/12/22 01:49:11;;;;;;;18.73;10.57;;;1.40;81.60;;;-0.03;77.82;96938.97;4062078;34;20095;-87
2021/12/22 01:52:03;;;;;;;16.65;9.57;;;1.40;81.80;;;-0.02;77.63;96938.78;4058189;34;19993;-87
2021/12/22 01:54:37;;;;;;;17.00;9.93;;;1.40;81.70;;;-0.05;78.07;96935.63;4100825;33;19991;-87
2021/12/22 01:57:09;;;;;;;16.83;9.52;;;1.40;81.90;;;-0.04;77.81;96932.75;4125708;33;20008;-85
2021/12/22 01:59:40;;;;;;;14.52;8.68;;;1.30;81.90;;;-0.04;77.86;96932.75;4149777;33;20144;-86
2021/12/22 02:02:10;;;;;;;16.20;8.63;;;1.40;81.80;;;-0.04;78.12;96927.38;4126127;34;20184;-86
2021/12/22 02:04:38;;;;;;;14.80;9.48;;;1.40;81.80;;;-0.04;77.69;96930.06;4149587;34;19992;-86
2021/12/22 02:07:06;;;;;;;15.00;8.90;;;1.40;81.70;;;-0.04;77.75;96932.75;4106921;34;20104;-86
2021/12/22 02:12:03;;;;;;;14.35;8.77;;;1.30;81.90;;;-0.05;77.84;96930.25;4108857;34;20257;-86
2021/12/22 02:14:29;;;;;;;15.43;9.25;;;1.40;81.90;;;-0.05;77.85;96931.06;4107890;33;20004;-87
2021/12/22 02:16:56;;;;;;;19.13;9.32;;;1.40;82.00;;;-0.06;77.87;96918.63;4106381;33;20230;-87
2021/12/22 02:19:22;;;;;;;15.48;9.48;;;1.30;82.10;;;-0.05;77.80;96920.31;4081866;34;19980;-86
2021/12/22 02:21:53;;;;;;;14.63;8.60;;;1.40;81.90;;;-0.06;77.97;96910.56;4081445;34;19996;-87
2021/12/22 02:24:20;;;;;;;16.25;8.60;;;1.30;82.00;;;-0.06;77.93;96907.06;4100351;34;20201;-87
2021/12/22 02:26:52;;;;;;;14.02;9.07;;;1.30;82.10;;;-0.07;78.30;96906.22;4098896;34;20234;-87
2021/12/22 02:29:33;;;;;;;14.77;8.77;;;1.40;82.20;;;-0.07;78.16;96913.44;4098775;34;19993;-86
2021/12/22 02:32:06;;;;;;;13.27;8.50;;;1.30;82.20;;;-0.07;78.44;96933.16;4101413;34;19989;-87
2021/12/22 02:34:40;;;;;;;13.80;7.85;;;1.30;82.40;;;-0.08;78.62;96941.38;4126267;34;20047;-86
2021/12/22 02:37:11;;;;;;;12.57;7.95;;;1.30;82.40;;;-0.06;78.35;96950.13;4104772;34;20315;-85
2021/12/22 02:39:47;;;;;;;11.43;7.32;;;1.40;82.30;;;-0.07;78.22;96927.75;4149208;34;20127;-87
2021/12/22 02:42:18;;;;;;;11.38;6.63;;;1.40;82.30;;;-0.08;78.11;96931.47;4148894;34;20467;-86
2021/12/22 02:44:44;;;;;;;11.30;7.00;;;1.40;82.10;;;-0.06;78.24;96931.28;4082940;34;20278;-86
2021/12/22 02:47:23;;;;;;;9.57;6.63;;;1.40;82.20;;;-0.07;78.24;96933.16;4081193;34;19997;-87
2021/12/22 02:49:50;;;;;;;11.63;6.63;;;1.30;82.10;;;-0.08;77.91;96926.09;4077151;34;20151;-86
2021/12/22 02:52:16;;;;;;;11.95;6.80;;;1.30;82.00;;;-0.07;78.15;96932.28;4098996;34;20068;-87
2021/12/22 02:54:50;;;;;;;14.25;7.07;;;1.40;82.10;;;-0.06;78.10;96928.59;4120513;34;19992;-89
2021/12/22 02:57:26;;;;;;;10.60;6.38;;;1.40;82.20;;;-0.07;78.05;96927.75;4121950;34;19981;-85
2021/12/22 03:00:48;;;;;;;11.15;6.10;;;1.30;82.10;;;-0.09;78.01;96923.56;4086465;34;20048;-86
2021/12/22 03:05:29;;;;;;;11.10;6.47;;;1.30;82.20;;;-0.08;77.95;96934.16;4111125;34;19953;-87
2021/12/22 03:07:55;;;;;;;11.07;6.75;;;1.30;82.10;;;-0.09;78.26;96929.78;4083530;34;20230;-87
2021/12/22 03:10:22;;;;;;;10.93;6.32;;;1.30;82.10;;;-0.09;78.03;96929.78;4083565;34;20217;-87
2021/12/22 03:12:55;;;;;;;11.80;6.68;;;1.30;82.10;;;-0.08;78.19;96922.53;4083590;34;20015;-86
2021/12/22 03:15:22;;;;;;;11.25;6.40;;;1.30;82.80;;;-0.07;78.15;96937.69;4083717;34;20008;-86
2021/12/22 03:17:49;;;;;;;11.25;6.63;;;1.30;82.20;;;-0.11;77.65;96926.44;4083789;34;20234;-86
2021/12/22 03:20:16;;;;;;;12.07;6.80;;;1.30;82.10;;;-0.09;77.66;96932.50;4083371;34;20095;-87
2021/12/22 03:22:44;;;;;;;11.20;6.03;;;1.30;82.00;;;-0.11;78.19;96937.22;4105510;34;20017;-86
2021/12/22 03:25:15;;;;;;;12.50;6.82;;;1.30;82.10;;;-0.11;77.93;96930.97;4082935;34;20023;-87
2021/12/22 03:27:48;;;;;;;9.43;5.97;;;1.30;82.10;;;-0.11;78.11;96929.13;4108189;34;20165;-86
2021/12/22 03:30:17;;;;;;;9.75;5.53;;;1.30;82.00;;;-0.12;77.97;96930.16;4085251;34;19988;-86
2021/12/22 03:32:44;;;;;;;11.30;6.13;;;1.30;82.00;;;-0.08;77.98;96933.31;4105386;34;20151;-87
2021/12/22 03:35:16;;;;;;;11.75;6.22;;;1.30;82.10;;;-0.12;78.03;96930.16;4082830;34;20134;-86
2021/12/22 03:37:44;;;;;;;9.63;5.80;;;1.30;82.10;;;-0.11;78.09;96921.06;4128308;34;20231;-87
2021/12/22 03:40:11;;;;;;;9.68;6.05;;;1.30;82.00;;;-0.11;77.70;96929.13;4083271;34;20263;-87
2021/12/22 03:42:37;;;;;;;9.90;6.32;;;1.30;82.00;;;-0.14;78.36;96924.13;4104824;34;20105;-86
2021/12/22 03:45:04;;;;;;;9.88;6.47;;;1.30;82.10;;;-0.13;78.09;96931.19;4082581;34;20015;-87
2021/12/22 03:47:31;;;;;;;10.63;6.38;;;1.30;82.20;;;-0.13;77.69;96931.19;4084005;34;20299;-86
2021/12/22 03:49:57;;;;;;;10.82;5.90;;;1.30;82.10;;;-0.12;78.26;96929.31;4119144;34;20004;-86
2021/12/22 03:52:23;;;;;;;10.77;6.88;;;1.30;82.00;;;-0.12;78.17;96932.84;4127047;34;20319;-87
2021/12/22 03:54:54;;;;;;;10.98;6.38;;;1.30;82.00;;;-0.13;78.03;96917.72;4104320;34;20207;-86
2021/12/22 03:57:21;;;;;;;10.02;5.90;;;1.30;82.10;;;-0.12;77.63;96921.22;4104910;34;19985;-86
2021/12/22 03:59:47;;;;;;;10.30;6.30;;;1.30;82.00;;;-0.14;78.11;96916.03;4104579;34;19992;-86
2021/12/22 04:02:14;;;;;;;11.88;6.35;;;1.30;82.20;;;-0.13;78.09;96909.66;4082294;34;20299;-86
2021/12/22 04:04:44;;;;;;;9.85;6.15;;;1.30;82.20;;;-0.16;78.11;96915.38;4104600;34;20019;-86
2021/12/22 04:07:10;;;;;;;10.52;6.15;;;1.30;82.10;;;-0.16;77.88;96918.09;4128266;34;20266;-85
2021/12/22 04:09:37;;;;;;;10.73;6.53;;;1.30;82.00;;;-0.15;77.73;96917.06;4082926;34;20407;-86
2021/12/22 04:12:04;;;;;;;12.93;6.40;;;1.30;82.00;;;-0.17;78.06;96909.19;4083277;34;20070;-86
2021/12/22 04:14:30;;;;;;;10.00;5.57;;;1.30;82.00;;;-0.16;78.10;96904.63;4081827;34;20012;-85
2021/12/22 04:16:56;;;;;;;10.40;6.07;;;1.30;82.10;;;-0.14;77.91;96904.47;4082318;34;19980;-85
2021/12/22 04:19:22;;;;;;;9.90;6.35;;;1.30;82.10;;;-0.17;77.76;96900.25;4082828;34;19999;-86
2021/12/22 04:21:50;;;;;;;9.23;6.18;;;1.20;81.90;;;-0.17;77.97;96903.81;4104719;34;20234;-86
2021/12/22 04:24:18;;;;;;;11.70;6.80;;;1.30;82.10;;;-0.16;78.32;96912.69;4104273;34;20176;-86
2021/12/22 04:26:44;;;;;;;9.45;5.80;;;1.30;82.40;;;-0.16;78.20;96913.56;4104575;34;19995;-86
2021/12/22 04:29:11;;;;;;;9.57;5.93;;;1.30;82.30;;;-0.14;78.35;96923.31;4104485;34;20061;-86
2021/12/22 04:31:38;;;;;;;9.73;6.20;;;1.30;82.40;;;-0.16;78.18;96928.84;4083317;34;20226;-87
2021/12/22 04:34:08;;;;;;;9.15;5.80;;;1.20;82.20;;;-0.17;78.14;96927.16;4104073;34;19996;-87
2021/12/22 04:36:39;;;;;;;9.68;6.25;;;1.20;82.20;;;-0.18;78.05;96934.44;4062555;34;20029;-87
2021/12/22 04:39:07;;;;;;;9.68;6.03;;;1.20;82.40;;;-0.18;78.10;96947.03;4083078;34;20032;-87
2021/12/22 04:41:33;;;;;;;11.05;6.03;;;1.20;82.30;;;-0.17;78.32;96948.69;4100179;34;19993;-86
2021/12/22 04:43:59;;;;;;;10.32;6.45;;;1.30;82.50;;;-0.19;78.41;96945.34;4077664;34;20055;-86
2021/12/22 04:46:26;;;;;;;11.05;6.13;;;1.20;82.30;;;-0.17;78.18;96948.69;4102012;34;20122;-86
2021/12/22 04:48:52;;;;;;;10.55;6.82;;;1.20;82.10;;;-0.18;78.09;96941.66;4104504;34;20463;-86
2021/12/22 04:51:25;;;;;;;10.88;6.60;;;1.20;82.10;;;-0.19;78.58;96942.66;4082737;34;20004;-86
2021/12/22 04:54:03;;;;;;;10.60;6.10;;;1.20;82.40;;;-0.18;77.89;96936.25;4107000;34;20258;-86
2021/12/22 04:56:30;;;;;;;11.38;6.35;;;1.20;82.10;;;-0.20;78.06;96946.41;4081797;34;20020;-86
2021/12/22 04:58:56;;;;;;;12.43;6.75;;;1.20;82.20;;;-0.18;78.42;96945.19;4122058;34;20158;-86
2021/12/22 05:01:22;;;;;;;11.02;5.80;;;1.20;82.20;;;-0.19;78.02;96951.59;4075989;34;20040;-87
2021/12/22 05:03:48;;;;;;;10.23;6.50;;;1.20;82.00;;;-0.18;78.27;96947.03;4066382;34;20526;-87
2021/12/22 05:06:15;;;;;;;10.30;6.30;;;1.20;82.10;;;-0.22;78.01;96946.56;4039070;34;20623;-87
2021/12/22 05:08:41;;;;;;;10.32;6.05;;;1.20;82.00;;;-0.21;78.21;96947.41;4017051;34;20284;-87
2021/12/22 05:11:07;;;;;;;12.23;6.85;;;1.20;82.10;;;-0.19;78.00;96950.75;4038334;34;20277;-87
2021/12/22 05:13:35;;;;;;;10.82;6.60;;;1.20;82.10;;;-0.19;78.00;96956.13;4038415;34;20335;-86
2021/12/22 05:16:04;;;;;;;11.77;6.30;;;1.20;82.00;;;-0.21;77.85;96950.09;4058912;34;20371;-87
2021/12/22 05:21:15;;;;;;;12.05;7.05;;;1.20;82.10;;;-0.20;77.92;96960.69;4020469;34;20296;-87
2021/12/22 05:23:42;;;;;;;10.02;6.57;;;1.20;82.10;;;-0.19;78.01;96964.19;3988505;34;20647;-86
2021/12/22 05:26:08;;;;;;;11.00;6.57;;;1.20;82.00;;;-0.21;78.52;96958.19;3987561;34;19989;-87
2021/12/22 05:28:34;;;;;;;11.20;7.22;;;1.20;82.20;;;-0.21;78.42;96966.25;4010703;34;20376;-87
2021/12/22 05:31:00;;;;;;;10.77;6.72;;;1.20;82.30;;;-0.19;77.86;96964.19;4028357;34;20278;-87
2021/12/22 05:33:27;;;;;;;10.48;7.03;;;1.20;82.20;;;-0.23;78.09;96961.03;4006805;34;20185;-87
2021/12/22 05:35:53;;;;;;;11.63;6.47;;;1.20;82.20;;;-0.22;77.82;96954.63;4003354;34;20304;-86
2021/12/22 05:38:19;;;;;;;11.48;6.65;;;1.20;82.30;;;-0.22;77.95;96951.13;4008903;34;20128;-86
2021/12/22 05:40:46;;;;;;;11.68;6.95;;;1.20;82.20;;;-0.22;78.10;96961.88;4011920;34;20038;-87
2021/12/22 05:43:12;;;;;;;11.00;6.82;;;1.20;82.30;;;-0.20;78.14;96967.94;3983473;34;20294;-85
2021/12/22 05:45:38;;;;;;;10.93;6.40;;;1.20;82.40;;;-0.20;78.14;96967.94;4005931;34;20303;-86
2021/12/22 05:48:05;;;;;;;12.05;7.53;;;1.20;82.20;;;-0.22;78.01;96962.72;4017355;34;20355;-86
2021/12/22 05:50:31;;;;;;;10.98;6.60;;;1.20;82.20;;;-0.22;77.82;96968.09;3979162;34;20164;-86
2021/12/22 05:52:58;;;;;;;12.30;7.45;;;1.20;82.10;;;-0.21;77.96;96969.75;3981687;34;20290;-87
2021/12/22 05:55:24;;;;;;;12.23;7.45;;;1.20;82.10;;;-0.22;78.08;96969.97;4022559;34;20303;-87
2021/12/22 05:57:50;;;;;;;11.25;6.82;;;1.20;82.10;;;-0.23;77.74;96969.09;4025672;34;20010;-86
2021/12/22 06:00:17;;;;;;;10.52;6.72;;;1.20;82.10;;;-0.25;78.32;96971.13;3980089;34;20265;-88
2021/12/22 06:02:43;;;;;;;10.90;6.85;;;1.20;82.20;;;-0.20;78.24;96981.38;3996705;34;20412;-86
2021/12/22 06:05:10;;;;;;;11.88;7.10;;;1.20;82.30;;;-0.24;78.36;96975.50;3981040;34;20290;-87
2021/12/22 06:07:36;;;;;;;12.55;7.13;;;1.20;82.20;;;-0.23;78.08;96976.34;3980930;34;20306;-87
2021/12/22 06:10:05;;;;;;;12.05;7.45;;;1.20;82.30;;;-0.21;78.37;96985.09;4000735;34;20265;-87
2021/12/22 06:12:31;;;;;;;11.88;6.85;;;1.20;82.20;;;-0.23;78.13;96976.34;3982132;34;20261;-86
2021/12/22 06:14:58;;;;;;;12.45;7.35;;;1.20;82.30;;;-0.21;78.30;96985.09;3978348;34;20318;-86
2021/12/22 06:17:24;;;;;;;11.05;6.63;;;1.20;82.20;;;-0.22;78.02;96988.81;3978818;34;20300;-86
2021/12/22 06:19:50;;;;;;;11.98;7.15;;;1.20;82.20;;;-0.23;78.04;96992.50;3976991;34;20383;-86
2021/12/22 06:22:17;;;;;;;13.07;7.50;;;1.20;82.00;;;-0.22;77.78;96995.00;3973147;34;19984;-87
2021/12/22 06:24:43;;;;;;;11.55;6.78;;;1.20;82.10;;;-0.22;77.90;96999.56;3961846;34;20269;-86
2021/12/22 06:27:09;;;;;;;14.02;7.80;;;1.20;82.00;;;-0.23;77.94;96997.88;3961318;34;20290;-87
2021/12/22 06:29:36;;;;;;;11.50;7.47;;;1.20;82.10;;;-0.25;78.02;97000.75;3960814;34;19994;-88
2021/12/22 06:32:03;;;;;;;12.93;8.38;;;1.20;82.10;;;-0.23;78.22;97004.09;3962667;34;20289;-87
2021/12/22 06:34:29;;;;;;;13.13;7.57;;;1.20;82.20;;;-0.22;78.23;97004.94;3963415;34;20295;-86
2021/12/22 06:36:55;;;;;;;15.25;7.55;;;1.20;82.20;;;-0.22;78.31;97015.72;3981940;34;20322;-87
2021/12/22 06:39:22;;;;;;;11.95;7.90;;;1.20;82.10;;;-0.21;78.24;97012.00;3961324;34;20287;-86
2021/12/22 06:41:49;;;;;;;12.45;7.50;;;1.20;82.20;;;-0.24;77.98;97005.09;3962693;34;20015;-86
2021/12/22 06:44:15;;;;;;;14.70;8.25;;;1.20;82.20;;;-0.22;78.00;97015.72;3962611;34;20317;-87
2021/12/22 06:46:42;;;;;;;12.60;7.78;;;1.20;82.30;;;-0.22;77.80;97015.72;3965475;34;20293;-87
2021/12/22 06:49:10;;;;;;;13.38;8.05;;;1.20;82.10;;;-0.22;78.23;97013.00;3985733;34;20519;-87
2021/12/22 06:51:37;;;;;;;12.20;7.85;;;1.20;82.20;;;-0.23;78.03;97014.03;4009698;34;20308;-87
2021/12/22 06:54:04;;;;;;;12.52;7.50;;;1.20;82.20;;;-0.21;78.34;97023.59;3985486;34;20049;-87
2021/12/22 06:56:30;;;;;;;14.20;8.13;;;1.20;82.30;;;-0.22;78.16;97021.91;4005108;34;20322;-87
2021/12/22 06:58:57;;;;;;;12.20;8.05;;;1.20;82.20;;;-0.22;78.23;97021.09;3961215;34;20548;-87
2021/12/22 07:01:24;;;;;;;12.50;7.38;;;1.20;82.20;;;-0.21;78.16;97036.22;3964930;34;19995;-87
2021/12/22 07:03:50;;;;;;;14.77;8.88;;;1.20;82.10;;;-0.21;77.92;97026.28;3987256;34;20278;-87
2021/12/22 07:06:17;;;;;;;14.98;8.20;;;1.20;82.00;;;-0.20;77.98;97035.19;3966145;34;20227;-87
2021/12/22 07:08:43;;;;;;;15.27;9.40;;;1.20;82.10;;;-0.21;77.96;97042.41;3965914;34;20437;-86
2021/12/22 07:11:09;;;;;;;15.43;9.32;;;1.20;82.00;;;-0.19;77.98;97045.78;3966231;34;20305;-87
2021/12/22 07:13:36;;;;;;;17.95;10.40;;;1.20;81.90;;;-0.20;77.82;97036.03;3964022;34;20108;-85
2021/12/22 07:16:03;;;;;;;20.75;10.90;;;1.20;82.00;;;-0.21;77.59;97038.91;3961045;34;20351;-86
2021/12/22 07:18:31;;;;;;;18.10;10.20;;;1.20;81.90;;;-0.20;77.87;97045.97;3964576;34;20303;-86
2021/12/22 07:20:59;;;;;;;21.30;11.20;;;1.20;82.00;;;-0.18;77.92;97041.22;3964716;34;20297;-86
2021/12/22 07:23:26;;;;;;;20.17;11.23;;;1.20;82.20;;;-0.20;77.59;97035.19;3989692;34;20287;-87
2021/12/22 07:25:52;;;;;;;21.10;13.25;;;1.20;81.90;;;-0.19;78.13;97042.22;3965857;34;20076;-87
2021/12/22 07:28:18;;;;;;;24.38;11.93;;;1.20;81.80;;;-0.22;77.82;97038.06;3988114;34;20272;-86
2021/12/22 07:30:45;;;;;;;23.25;13.13;;;1.20;81.90;;;-0.20;77.77;97040.59;3968325;34;20221;-86
2021/12/22 07:33:11;;;;;;;24.25;12.80;;;1.20;82.00;;;-0.18;77.71;97054.66;3968205;34;20016;-86
2021/12/22 07:35:50;;;;;;;26.02;13.55;;;1.20;81.90;;;-0.19;78.15;97047.59;3986581;34;20197;-86
2021/12/22 07:38:25;;;;;;;25.60;14.50;;;1.20;82.10;;;-0.18;77.83;97054.66;3956216;34;20531;-86
2021/12/22 07:40:58;;;;;;;23.07;13.13;;;1.20;82.00;;;-0.19;77.79;97053.84;4007829;34;20019;-87
2021/12/22 07:43:25;;;;;;;25.77;13.68;;;1.20;81.90;;;-0.18;77.89;97060.91;3989372;34;20293;-87
2021/12/22 07:45:52;;;;;;;24.88;14.82;;;1.20;82.00;;;-0.18;77.88;97054.66;3986417;34;20000;-86
2021/12/22 07:48:18;;;;;;;24.95;13.63;;;1.20;82.00;;;-0.21;77.73;97055.88;3966938;34;20335;-87
2021/12/22 07:50:45;;;;;;;27.70;13.77;;;1.20;81.90;;;-0.21;77.99;97061.25;3989127;34;20306;-86
2021/12/22 07:53:11;;;;;;;26.38;14.52;;;1.20;82.00;;;-0.19;78.11;97053.00;3985725;34;20361;-87
2021/12/22 07:55:38;;;;;;;25.48;12.98;;;1.20;82.00;;;-0.19;78.14;97058.38;3985430;34;20357;-87
2021/12/22 07:58:04;;;;;;;28.58;14.20;;;1.20;82.00;;;-0.21;78.06;97055.06;3982952;34;20350;-87
2021/12/22 08:00:30;;;;;;;24.55;13.73;;;1.20;82.00;;;-0.21;78.60;97065.81;3984688;34;20411;-87
2021/12/22 08:02:56;;;;;;;23.42;13.52;;;1.20;82.10;;;-0.20;77.96;97072.88;3982098;34;20282;-87
2021/12/22 08:05:23;;;;;;;24.80;14.02;;;1.20;82.10;;;-0.21;78.12;97071.19;3981624;34;20317;-86
2021/12/22 08:07:49;;;;;;;21.85;13.45;;;1.20;82.00;;;-0.20;77.92;97078.25;3981254;34;20623;-86
2021/12/22 08:10:16;;;;;;;21.15;12.07;;;1.20;81.90;;;-0.20;78.11;97075.56;4001770;34;19984;-87
2021/12/22 08:12:42;;;;;;;22.20;12.98;;;1.20;82.00;;;-0.20;78.02;97072.88;3960303;34;20311;-87
2021/12/22 08:15:08;;;;;;;24.50;12.45;;;1.20;82.20;;;-0.18;78.02;97086.97;4002234;34;20008;-87
2021/12/22 08:17:35;;;;;;;21.17;12.40;;;1.20;82.00;;;-0.17;77.77;97085.94;3999800;34;20280;-87
2021/12/22 08:20:04;;;;;;;22.33;12.23;;;1.20;82.00;;;-0.18;78.04;97087.81;3956987;34;20257;-87
2021/12/22 08:22:30;;;;;;;23.00;12.48;;;1.20;82.10;;;-0.18;78.11;97086.97;3980929;34;20680;-87
2021/12/22 08:24:56;;;;;;;23.02;12.73;;;1.20;82.10;;;-0.17;77.80;97096.72;4005088;34;20328;-87
2021/12/22 08:27:23;;;;;;;21.95;12.10;;;1.30;82.10;;;-0.17;78.17;97094.88;3980869;34;20318;-87
2021/12/22 08:29:50;;;;;;;21.00;12.10;;;1.20;82.30;;;-0.17;78.12;97099.41;3982522;34;20832;-87
2021/12/22 08:32:16;;;;;;;21.48;12.40;;;1.20;82.00;;;-0.16;78.20;97103.78;3959450;34;20609;-87
2021/12/22 08:34:43;;;;;;;21.98;12.35;;;1.30;82.10;;;-0.16;77.93;97101.94;3935322;34;20310;-87
2021/12/22 08:39:56;;;;;;;20.33;11.50;;;1.30;82.10;;;-0.14;77.94;97109.00;3960348;34;19984;-87
2021/12/22 08:42:23;;;;;;;21.20;11.32;;;1.30;82.10;;;-0.15;77.95;97113.53;3959625;34;19993;-88
2021/12/22 08:44:49;;;;;;;21.30;11.70;;;1.20;82.00;;;-0.15;78.18;97113.53;4023699;34;20278;-87
2021/12/22 08:47:16;;;;;;;19.27;11.02;;;1.30;82.10;;;-0.14;77.81;97120.56;4002232;34;20282;-86
2021/12/22 08:49:43;;;;;;;19.25;10.85;;;1.30;82.00;;;-0.14;77.76;97115.19;3972967;34;20292;-87
2021/12/22 08:52:10;;;;;;;17.13;9.80;;;1.30;82.00;;;-0.14;78.01;97117.06;4024946;34;20521;-87
2021/12/22 08:54:36;;;;;;;15.77;10.20;;;1.30;82.10;;;-0.14;77.90;97114.38;4031706;34;20600;-87
2021/12/22 08:57:03;;;;;;;18.52;9.95;;;1.30;82.00;;;-0.15;78.14;97113.53;3965733;34;20214;-87
2021/12/22 08:59:30;;;;;;;18.77;10.43;;;1.30;81.90;;;-0.14;78.01;97109.81;4010833;34;20324;-88
2021/12/22 09:01:56;;;;;;;16.20;10.20;;;1.30;82.00;;;-0.12;77.97;97113.16;3990969;34;20287;-88
2021/12/22 09:04:23;;;;;;;17.35;9.77;;;1.30;82.00;;;-0.12;78.14;97117.69;4011389;33;20545;-88
2021/12/22 09:06:50;;;;;;;14.93;9.30;;;1.30;81.90;;;-0.13;77.73;97116.88;3989201;34;20270;-88
2021/12/22 09:09:17;;;;;;;16.08;10.60;;;1.30;81.90;;;-0.11;77.87;97114.84;4034340;33;20310;-87
2021/12/22 09:11:44;;;;;;;16.50;9.85;;;1.30;81.80;;;-0.12;77.76;97106.94;4037629;33;20504;-88
2021/12/22 09:14:11;;;;;;;16.52;10.40;;;1.30;81.70;;;-0.11;77.72;97108.59;4009120;34;20714;-87
2021/12/22 09:16:38;;;;;;;15.52;9.82;;;1.30;81.60;;;-0.10;77.56;97105.75;3986011;34;20612;-88
2021/12/22 09:19:06;;;;;;;15.00;8.65;;;1.40;81.70;;;-0.08;77.56;97110.94;4025638;34;20262;-88
2021/12/22 09:21:32;;;;;;;14.77;9.43;;;1.30;81.80;;;-0.10;77.56;97105.75;3961715;34;20313;-87
2021/12/22 09:23:59;;;;;;;16.20;9.75;;;1.40;81.70;;;-0.09;77.71;97106.56;3920737;34;20443;-88
2021/12/22 09:26:25;;;;;;;14.48;9.60;;;1.30;81.60;;;-0.08;77.75;97108.25;3960788;34;19989;-88
2021/12/22 09:28:52;;;;;;;16.10;8.48;;;1.30;81.60;;;-0.07;77.68;97116.16;3984413;34;20652;-88
2021/12/22 09:31:18;;;;;;;13.52;8.80;;;1.30;81.60;;;-0.08;77.71;97103.72;3957414;34;20270;-88
2021/12/22 09:33:45;;;;;;;13.93;9.15;;;1.30;81.60;;;-0.09;77.43;97107.44;3955486;34;20016;-87
2021/12/22 09:36:12;;;;;;;13.15;8.45;;;1.30;81.60;;;-0.08;77.61;97109.09;3975745;34;20323;-87
2021/12/22 09:38:38;;;;;;;14.75;8.13;;;1.30;81.60;;;-0.07;77.81;97110.78;3977285;34;20339;-88
2021/12/22 09:41:07;;;;;;;14.13;8.50;;;1.30;81.50;;;-0.07;77.73;97113.47;3979819;34;20293;-88
2021/12/22 09:43:34;;;;;;;14.25;8.65;;;1.30;82.30;;;-0.08;77.43;97103.72;3960178;34;20284;-86
2021/12/22 09:46:05;;;;;;;13.73;8.68;;;1.30;81.50;;;-0.08;77.78;97103.72;3960020;34;20041;-86
2021/12/22 09:49:34;;;;;;;12.02;7.88;;;1.30;81.50;;;-0.08;77.65;97109.09;3958768;34;20386;-86
2021/12/22 09:53:54;;;;;;;12.15;8.15;;;1.30;81.50;;;-0.08;77.42;97097.50;3982314;34;20287;-87
2021/12/22 09:56:30;;;;;;;13.05;8.43;;;1.30;81.40;;;-0.08;77.48;97109.09;3980557;34;20019;-88
2021/12/22 09:58:57;;;;;;;;;;;1.30;81.50;;;-0.09;77.58;97096.66;3985522;34;20316;-88
2021/12/22 10:01:25;;;;;;;12.52;7.53;;;1.30;81.50;;;-0.08;77.63;97094.78;3985150;34;20201;-87
2021/12/22 10:03:54;;;;;;;11.70;7.82;;;1.30;81.50;;;-0.10;77.64;97089.59;3988365;34;20310;-87
2021/12/22 10:06:20;;;;;;;11.60;7.22;;;1.30;81.50;;;-0.12;77.45;97091.63;3986165;34;20275;-88
2021/12/22 10:09:04;;;;;;;13.45;7.80;;;1.30;81.60;;;-0.09;77.68;97091.28;3963362;34;20279;-87
2021/12/22 10:11:34;;;;;;;13.07;7.97;;;1.30;81.50;;;-0.09;77.34;97099.34;3986916;34;20327;-88
2021/12/22 10:14:01;;;;;;;12.63;7.43;;;1.30;81.60;;;-0.09;77.62;97096.66;3967371;34;20597;-87
2021/12/22 10:16:29;;;;;;;11.88;7.70;;;1.30;81.60;;;-0.09;77.94;97093.13;3966814;34;20239;-87
2021/12/22 10:19:08;;;;;;;11.95;7.10;;;1.30;81.60;;;-0.11;77.56;97087.94;4007519;34;20353;-88
2021/12/22 10:21:37;;;;;;;12.00;7.45;;;1.30;81.50;;;-0.11;77.64;97092.47;3980143;34;20301;-88
2021/12/22 10:24:06;;;;;;;11.82;7.65;;;1.30;82.40;;;-0.12;77.29;97090.78;3980063;34;20295;-88
2021/12/22 10:26:33;;;;;;;12.15;7.15;;;1.30;81.60;;;-0.13;77.63;97087.28;3978691;34;20278;-88
2021/12/22 10:29:06;;;;;;;11.30;7.75;;;1.30;81.60;;;-0.13;77.70;97089.13;3957969;34;20365;-88
2021/12/22 10:31:42;;;;;;;10.65;7.05;;;1.30;81.60;;;-0.13;77.09;97098.03;3979973;34;20568;-88
2021/12/22 10:34:14;;;;;;;11.40;7.22;;;1.30;81.50;;;-0.14;77.62;97087.47;3964809;34;20112;-88
2021/12/22 10:36:53;;;;;;;12.70;7.60;;;1.30;81.50;;;-0.13;77.56;97092.66;3985161;34;20304;-87
2021/12/22 10:39:23;;;;;;;10.82;7.07;;;1.30;81.50;;;-0.14;77.35;97088.28;3985347;34;20410;-87